createdAt,value
2018-09-08T00:04:48.921Z,2.10
2018-09-08T00:10:11.776Z,2.07
2018-09-08T00:15:38.691Z,1.47
2018-09-08T00:21:05.218Z,1.53
2018-09-08T00:26:31.997Z,1.50
2018-09-08T00:31:54.485Z,1.63
2018-09-08T00:37:16.410Z,1.60
2018-09-08T00:42:38.618Z,1.77
2018-09-08T00:48:00.361Z,1.57
2018-09-08T00:53:22.460Z,1.40
2018-09-08T00:58:49.071Z,1.50
2018-09-08T01:04:11.214Z,1.70
2018-09-08T01:09:33.211Z,1.50
2018-09-08T01:14:55.327Z,1.30
2018-09-08T01:20:17.060Z,1.53
2018-09-08T01:25:39.501Z,1.80
2018-09-08T01:31:01.728Z,1.70
2018-09-08T01:36:23.506Z,1.63
2018-09-08T01:41:45.621Z,1.40
2018-09-08T01:47:07.782Z,1.67
2018-09-08T01:52:29.897Z,1.60
2018-09-08T01:57:52.193Z,1.73
2018-09-08T02:03:14.050Z,1.83
2018-09-08T02:08:36.026Z,1.30
2018-09-08T02:13:57.962Z,1.40
2018-09-08T02:19:20.149Z,1.00
2018-09-08T02:24:42.020Z,1.07
2018-09-08T02:30:04.065Z,1.50
2018-09-08T02:35:25.999Z,1.30
2018-09-08T02:40:47.907Z,1.50
2018-09-08T02:46:09.729Z,1.10
2018-09-08T02:51:29.570Z,1.30
2018-09-08T02:56:49.257Z,1.20
2018-09-08T03:02:09.015Z,1.40
2018-09-08T03:07:28.722Z,1.20
2018-09-08T03:12:48.662Z,1.07
2018-09-08T03:18:08.742Z,0.90
2018-09-08T03:23:28.437Z,1.00
2018-09-08T03:28:48.046Z,1.07
2018-09-08T03:34:07.676Z,1.07
2018-09-08T03:39:27.174Z,1.40
2018-09-08T03:44:46.846Z,1.57
2018-09-08T03:50:06.771Z,1.80
2018-09-08T03:55:26.882Z,1.57
2018-09-08T04:00:46.455Z,1.90
2018-09-08T04:06:08.315Z,1.37
2018-09-08T04:11:30.356Z,1.63
2018-09-08T04:16:52.226Z,1.40
2018-09-08T04:22:14.254Z,1.53
2018-09-08T04:27:36.291Z,1.43
2018-09-08T04:32:58.427Z,1.50
2018-09-08T04:38:20.210Z,1.90
2018-09-08T04:43:42.205Z,1.70
2018-09-08T04:49:04.103Z,1.70
2018-09-08T04:54:27.445Z,1.40
2018-09-08T04:59:49.383Z,1.57
2018-09-08T05:05:11.676Z,1.23
2018-09-08T05:10:33.458Z,1.40
2018-09-08T05:15:55.506Z,1.37
2018-09-08T05:21:17.346Z,1.10
2018-09-08T05:26:39.610Z,1.10
2018-09-08T05:32:01.414Z,1.23
2018-09-08T05:37:25.125Z,1.30
2018-09-08T05:42:47.040Z,1.57
2018-09-08T05:48:08.930Z,1.77
2018-09-08T05:53:31.258Z,1.40
2018-09-08T05:58:53.394Z,1.10
2018-09-08T06:04:15.773Z,1.00
2018-09-08T06:09:37.610Z,1.03
2018-09-08T06:14:59.788Z,1.00
2018-09-08T06:20:21.558Z,1.10
2018-09-08T06:25:43.662Z,1.37
2018-09-08T06:31:05.573Z,1.80
2018-09-08T06:36:27.845Z,2.30
2018-09-08T06:41:49.818Z,2.30
2018-09-08T06:47:11.963Z,2.20
2018-09-08T06:52:33.977Z,2.47
2018-09-08T06:57:56.097Z,2.60
2018-09-08T07:03:17.976Z,2.43
2018-09-08T07:08:40.150Z,2.20
2018-09-08T07:14:02.002Z,2.07
2018-09-08T07:19:24.035Z,2.20
2018-09-08T07:24:45.734Z,1.53
2018-09-08T07:30:07.610Z,1.60
2018-09-08T07:35:30.934Z,1.50
2018-09-08T07:40:52.981Z,1.70
2018-09-08T07:46:15.009Z,1.40
2018-09-08T07:51:36.689Z,1.10
2018-09-08T07:56:58.661Z,1.20
2018-09-08T08:02:20.455Z,1.10
2018-09-08T08:07:43.242Z,1.27
2018-09-08T08:13:05.335Z,1.00
2018-09-08T08:18:27.159Z,0.50
2018-09-08T08:23:49.258Z,0.60
2018-09-08T08:29:11.003Z,0.47
2018-09-08T08:34:33.110Z,0.40
2018-09-08T08:39:55.002Z,0.30
2018-09-08T08:45:17.259Z,0.43
2018-09-08T08:50:49.058Z,0.50
2018-09-08T08:56:11.945Z,0.40
2018-09-08T09:01:33.921Z,0.50
2018-09-08T09:06:56.545Z,0.40
2018-09-08T09:12:18.873Z,0.30
2018-09-08T09:17:40.777Z,0.60
2018-09-08T09:23:17.112Z,0.40
2018-09-08T09:28:38.381Z,0.57
2018-09-08T09:34:00.492Z,0.70
2018-09-08T09:39:22.386Z,0.73
2018-09-08T09:44:44.507Z,0.70
2018-09-08T09:50:06.528Z,0.63
2018-09-08T09:55:28.503Z,0.80
2018-09-08T10:00:55.206Z,0.90
2018-09-08T10:06:17.187Z,0.60
2018-09-08T10:11:39.113Z,0.57
2018-09-08T10:17:01.164Z,0.80
2018-09-08T10:22:22.862Z,0.63
2018-09-08T10:27:45.622Z,0.57
2018-09-08T10:33:07.734Z,0.50
2018-09-08T10:38:29.560Z,0.60
2018-09-08T10:43:51.697Z,0.60
2018-09-08T10:49:13.622Z,0.60
2018-09-08T10:54:35.895Z,0.53
2018-09-08T10:59:57.916Z,0.70
2018-09-08T11:05:19.789Z,0.80
2018-09-08T11:10:42.034Z,0.50
2018-09-08T11:16:04.308Z,0.50
2018-09-08T11:21:26.466Z,0.60
2018-09-08T11:26:48.414Z,0.87
2018-09-08T11:32:10.443Z,0.70
2018-09-08T11:37:32.334Z,0.80
2018-09-08T11:42:54.425Z,0.70
2018-09-08T11:48:16.116Z,1.00
2018-09-08T11:53:38.345Z,0.70
2018-09-08T11:59:00.362Z,0.70
2018-09-08T12:04:22.366Z,0.90
2018-09-08T12:09:44.103Z,1.07
2018-09-08T12:15:07.735Z,0.90
2018-09-08T12:20:29.954Z,1.00
2018-09-08T12:25:52.831Z,1.30
2018-09-08T12:31:14.720Z,0.90
2018-09-08T12:36:38.902Z,1.10
2018-09-08T12:42:00.775Z,1.00
2018-09-08T12:47:24.476Z,0.80
2018-09-08T12:52:46.695Z,1.10
2018-09-08T12:58:09.884Z,1.20
2018-09-08T13:03:31.838Z,1.10
2018-09-08T13:08:53.898Z,1.10
2018-09-08T13:14:15.660Z,1.00
2018-09-08T13:19:40.172Z,1.13
2018-09-08T13:25:02.254Z,1.27
2018-09-08T13:30:24.598Z,1.00
2018-09-08T13:35:48.042Z,0.90
2018-09-08T13:41:10.650Z,1.10
2018-09-08T13:46:32.789Z,1.00
2018-09-08T13:51:54.578Z,1.13
2018-09-08T13:57:17.005Z,0.77
2018-09-08T14:02:39.177Z,0.90
2018-09-08T14:08:05.906Z,0.80
2018-09-08T14:13:28.273Z,0.87
2018-09-08T14:18:52.030Z,1.00
2018-09-08T14:24:14.372Z,1.10
2018-09-08T14:29:36.962Z,0.90
2018-09-08T14:34:59.187Z,1.30
2018-09-08T14:40:22.759Z,1.43
2018-09-08T14:45:45.046Z,0.93
2018-09-08T14:51:06.807Z,0.97
2018-09-08T14:56:31.971Z,0.93
2018-09-08T15:01:53.834Z,0.90
2018-09-08T15:07:16.373Z,0.80
2018-09-08T15:12:38.416Z,1.00
2018-09-08T15:18:00.286Z,1.13
2018-09-08T15:23:22.394Z,0.80
2018-09-08T15:28:44.166Z,1.20
2018-09-08T15:34:06.277Z,0.90
2018-09-08T15:39:28.894Z,0.70
2018-09-08T15:44:51.208Z,1.10
2018-09-08T15:50:13.435Z,0.80
2018-09-08T15:55:35.114Z,0.90
2018-09-08T16:00:57.343Z,0.93
2018-09-08T16:06:19.258Z,0.90
2018-09-08T16:11:41.471Z,1.00
2018-09-08T16:17:05.261Z,1.20
2018-09-08T16:22:27.613Z,0.77
2018-09-08T16:27:49.510Z,0.87
2018-09-08T16:33:11.503Z,0.93
2018-09-08T16:38:33.562Z,0.97
2018-09-08T16:43:55.894Z,0.77
2018-09-08T16:49:17.830Z,0.60
2018-09-08T16:54:40.050Z,0.70
2018-09-08T17:00:01.760Z,0.87
2018-09-08T17:05:23.983Z,0.80
2018-09-08T17:10:47.176Z,1.00
2018-09-08T17:16:09.561Z,0.67
2018-09-08T17:21:31.385Z,0.70
2018-09-08T17:26:53.500Z,0.80
2018-09-08T17:32:15.713Z,0.70
2018-09-08T17:37:37.756Z,0.60
2018-09-08T17:42:59.658Z,0.50
2018-09-08T17:48:21.791Z,0.70
2018-09-08T17:53:44.139Z,0.70
2018-09-08T17:59:05.902Z,1.10
2018-09-08T18:04:28.095Z,1.00
2018-09-08T18:09:49.974Z,1.00
2018-09-08T18:15:12.181Z,1.10
2018-09-08T18:20:33.996Z,0.87
2018-09-08T18:25:56.489Z,1.03
2018-09-08T18:31:18.182Z,0.87
2018-09-08T18:36:40.267Z,0.93
2018-09-08T18:42:02.208Z,1.00
2018-09-08T18:47:24.354Z,1.10
2018-09-08T18:52:47.298Z,0.80
2018-09-08T18:58:09.326Z,1.03
2018-09-08T19:03:31.259Z,0.73
2018-09-08T19:08:52.908Z,0.70
2018-09-08T19:14:19.891Z,1.13
2018-09-08T19:19:41.517Z,0.80
2018-09-08T19:25:03.903Z,0.70
2018-09-08T19:30:25.717Z,1.00
2018-09-08T19:35:47.814Z,1.03
2018-09-08T19:41:09.687Z,1.03
2018-09-08T19:46:36.491Z,1.63
2018-09-08T19:51:58.943Z,1.50
2018-09-08T19:57:25.854Z,1.50
2018-09-08T20:02:48.033Z,1.50
2018-09-08T20:08:09.997Z,1.37
2018-09-08T20:13:32.091Z,1.37
2018-09-08T20:18:53.843Z,1.30
2018-09-08T20:24:15.998Z,1.20
2018-09-08T20:29:38.506Z,1.20
2018-09-08T20:35:00.627Z,1.60
2018-09-08T20:40:23.555Z,1.40
2018-09-08T20:45:46.419Z,1.63
2018-09-08T20:51:08.420Z,1.17
2018-09-08T20:56:30.679Z,1.30
2018-09-08T21:01:52.580Z,1.20
2018-09-08T21:07:15.247Z,1.33
2018-09-08T21:12:37.682Z,1.40
2018-09-08T21:17:59.989Z,1.57
2018-09-08T21:23:21.983Z,1.87
2018-09-08T21:28:44.096Z,1.93
2018-09-08T21:34:07.371Z,2.10
2018-09-08T21:39:29.419Z,1.63
2018-09-08T21:44:51.382Z,2.00
2018-09-08T21:50:13.454Z,1.60
2018-09-08T21:55:36.340Z,1.70
2018-09-08T22:01:07.435Z,1.50
2018-09-08T22:06:29.615Z,1.97
2018-09-08T22:11:51.741Z,1.90
2018-09-08T22:17:13.753Z,1.40
2018-09-08T22:22:37.117Z,1.73
2018-09-08T22:27:59.086Z,1.90
2018-09-08T22:33:20.900Z,1.87
2018-09-08T22:38:44.677Z,1.23
2018-09-08T22:44:07.272Z,1.50
2018-09-08T22:49:28.962Z,1.90
2018-09-08T22:54:51.065Z,1.70
2018-09-08T23:00:12.774Z,1.70
2018-09-08T23:05:34.908Z,1.57
2018-09-08T23:10:57.456Z,1.43
2018-09-08T23:16:21.619Z,1.70
2018-09-08T23:21:43.804Z,1.50
2018-09-08T23:27:05.758Z,1.87
2018-09-08T23:32:28.842Z,1.40
2018-09-08T23:37:50.931Z,1.30
2018-09-08T23:43:12.885Z,1.70
2018-09-08T23:48:35.071Z,1.30
2018-09-08T23:53:56.950Z,1.63
2018-09-08T23:59:19.074Z,1.43
